sensor_id;sensor_type;location;lat;lon;timestamp;P1;durP1;ratioP1;P2;durP2;ratioP2
21420;SDS011;10871;50.144;8.428;2024-01-10T00:00:46;11.38;;;6.28;;
21420;SDS011;10871;50.144;8.428;2024-01-10T00:03:13;12.65;;;6.03;;
21420;SDS011;10871;50.144;8.428;2024-01-10T00:05:39;13.93;;;6.25;;
21420;SDS011;10871;50.144;8.428;2024-01-10T00:08:06;11.63;;;5.75;;
21420;SDS011;10871;50.144;8.428;2024-01-10T00:10:33;14.50;;;6.45;;
21420;SDS011;10871;50.144;8.428;2024-01-10T00:13:00;10.65;;;5.45;;
21420;SDS011;10871;50.144;8.428;2024-01-10T00:15:26;13.68;;;6.10;;
21420;SDS011;10871;50.144;8.428;2024-01-10T00:17:53;12.50;;;5.82;;
21420;SDS011;10871;50.144;8.428;2024-01-10T00:20:19;12.63;;;5.35;;
21420;SDS011;10871;50.144;8.428;2024-01-10T00:22:46;10.45;;;5.68;;
21420;SDS011;10871;50.144;8.428;2024-01-10T00:25:13;14.68;;;6.93;;
21420;SDS011;10871;50.144;8.428;2024-01-10T00:27:40;17.10;;;6.60;;
21420;SDS011;10871;50.144;8.428;2024-01-10T00:30:06;13.23;;;6.13;;
21420;SDS011;10871;50.144;8.428;2024-01-10T00:32:34;12.55;;;6.20;;
21420;SDS011;10871;50.144;8.428;2024-01-10T00:35:01;12.10;;;6.22;;
21420;SDS011;10871;50.144;8.428;2024-01-10T00:37:28;14.70;;;6.18;;
21420;SDS011;10871;50.144;8.428;2024-01-10T00:39:54;15.65;;;6.47;;
21420;SDS011;10871;50.144;8.428;2024-01-10T00:42:22;14.48;;;6.43;;
21420;SDS011;10871;50.144;8.428;2024-01-10T00:44:49;13.20;;;6.30;;
21420;SDS011;10871;50.144;8.428;2024-01-10T00:47:17;11.95;;;6.68;;
21420;SDS011;10871;50.144;8.428;2024-01-10T00:49:43;11.68;;;5.90;;
21420;SDS011;10871;50.144;8.428;2024-01-10T00:52:10;13.40;;;6.90;;
21420;SDS011;10871;50.144;8.428;2024-01-10T00:54:37;11.52;;;6.05;;
21420;SDS011;10871;50.144;8.428;2024-01-10T00:57:04;13.40;;;6.57;;
21420;SDS011;10871;50.144;8.428;2024-01-10T00:59:31;14.50;;;6.18;;
21420;SDS011;10871;50.144;8.428;2024-01-10T01:01:57;13.00;;;6.15;;
21420;SDS011;10871;50.144;8.428;2024-01-10T01:04:26;15.55;;;6.82;;
21420;SDS011;10871;50.144;8.428;2024-01-10T01:06:53;17.45;;;6.68;;
21420;SDS011;10871;50.144;8.428;2024-01-10T01:09:20;12.45;;;6.20;;
21420;SDS011;10871;50.144;8.428;2024-01-10T01:11:46;13.85;;;7.25;;
21420;SDS011;10871;50.144;8.428;2024-01-10T01:14:13;14.45;;;6.70;;
21420;SDS011;10871;50.144;8.428;2024-01-10T01:16:40;14.93;;;7.18;;
21420;SDS011;10871;50.144;8.428;2024-01-10T01:19:06;15.43;;;7.38;;
21420;SDS011;10871;50.144;8.428;2024-01-10T01:21:34;14.52;;;7.15;;
21420;SDS011;10871;50.144;8.428;2024-01-10T01:24:01;18.63;;;7.50;;
21420;SDS011;10871;50.144;8.428;2024-01-10T01:26:27;15.68;;;7.20;;
21420;SDS011;10871;50.144;8.428;2024-01-10T01:28:55;14.98;;;7.18;;
21420;SDS011;10871;50.144;8.428;2024-01-10T01:31:22;17.45;;;7.55;;
21420;SDS011;10871;50.144;8.428;2024-01-10T01:33:48;16.23;;;7.93;;
21420;SDS011;10871;50.144;8.428;2024-01-10T01:36:15;16.40;;;7.53;;
21420;SDS011;10871;50.144;8.428;2024-01-10T01:38:42;17.08;;;7.80;;
21420;SDS011;10871;50.144;8.428;2024-01-10T01:41:08;16.08;;;7.60;;
21420;SDS011;10871;50.144;8.428;2024-01-10T01:43:35;17.02;;;7.63;;
21420;SDS011;10871;50.144;8.428;2024-01-10T01:46:02;16.10;;;7.55;;
21420;SDS011;10871;50.144;8.428;2024-01-10T01:48:29;15.13;;;7.25;;
21420;SDS011;10871;50.144;8.428;2024-01-10T01:50:57;16.95;;;7.18;;
21420;SDS011;10871;50.144;8.428;2024-01-10T01:53:24;16.58;;;7.80;;
21420;SDS011;10871;50.144;8.428;2024-01-10T01:55:51;15.88;;;7.57;;
21420;SDS011;10871;50.144;8.428;2024-01-10T01:58:18;17.95;;;8.27;;
21420;SDS011;10871;50.144;8.428;2024-01-10T02:00:46;15.88;;;7.22;;
21420;SDS011;10871;50.144;8.428;2024-01-10T02:03:13;16.30;;;7.88;;
21420;SDS011;10871;50.144;8.428;2024-01-10T02:05:40;17.45;;;7.18;;
21420;SDS011;10871;50.144;8.428;2024-01-10T02:08:07;17.08;;;7.95;;
21420;SDS011;10871;50.144;8.428;2024-01-10T02:10:34;17.13;;;7.95;;
21420;SDS011;10871;50.144;8.428;2024-01-10T02:13:01;19.75;;;8.00;;
21420;SDS011;10871;50.144;8.428;2024-01-10T02:15:29;15.85;;;7.68;;
21420;SDS011;10871;50.144;8.428;2024-01-10T02:17:56;17.60;;;8.10;;
21420;SDS011;10871;50.144;8.428;2024-01-10T02:20:23;16.95;;;8.27;;
21420;SDS011;10871;50.144;8.428;2024-01-10T02:22:50;15.85;;;7.40;;
21420;SDS011;10871;50.144;8.428;2024-01-10T02:25:17;15.63;;;7.25;;
21420;SDS011;10871;50.144;8.428;2024-01-10T02:27:44;22.25;;;8.27;;
21420;SDS011;10871;50.144;8.428;2024-01-10T02:30:11;18.83;;;8.00;;
21420;SDS011;10871;50.144;8.428;2024-01-10T02:32:38;17.70;;;7.95;;
21420;SDS011;10871;50.144;8.428;2024-01-10T02:35:05;14.70;;;7.50;;
21420;SDS011;10871;50.144;8.428;2024-01-10T02:37:32;20.60;;;8.25;;
21420;SDS011;10871;50.144;8.428;2024-01-10T02:39:58;16.35;;;7.40;;
21420;SDS011;10871;50.144;8.428;2024-01-10T02:42:28;24.33;;;8.30;;
21420;SDS011;10871;50.144;8.428;2024-01-10T02:44:56;16.92;;;7.72;;
21420;SDS011;10871;50.144;8.428;2024-01-10T02:47:22;14.15;;;7.63;;
21420;SDS011;10871;50.144;8.428;2024-01-10T02:49:49;17.33;;;7.57;;
21420;SDS011;10871;50.144;8.428;2024-01-10T02:52:16;17.08;;;7.35;;
21420;SDS011;10871;50.144;8.428;2024-01-10T02:54:42;16.02;;;7.82;;
21420;SDS011;10871;50.144;8.428;2024-01-10T02:57:09;16.40;;;7.05;;
21420;SDS011;10871;50.144;8.428;2024-01-10T02:59:35;14.52;;;7.30;;
21420;SDS011;10871;50.144;8.428;2024-01-10T03:02:02;15.50;;;8.13;;
21420;SDS011;10871;50.144;8.428;2024-01-10T03:04:28;17.88;;;7.60;;
21420;SDS011;10871;50.144;8.428;2024-01-10T03:06:55;19.65;;;7.80;;
21420;SDS011;10871;50.144;8.428;2024-01-10T03:09:22;17.42;;;7.05;;
21420;SDS011;10871;50.144;8.428;2024-01-10T03:11:49;17.77;;;8.30;;
21420;SDS011;10871;50.144;8.428;2024-01-10T03:14:15;18.05;;;7.78;;
21420;SDS011;10871;50.144;8.428;2024-01-10T03:16:42;18.20;;;7.82;;
21420;SDS011;10871;50.144;8.428;2024-01-10T03:19:11;14.63;;;7.13;;
21420;SDS011;10871;50.144;8.428;2024-01-10T03:21:37;18.48;;;8.43;;
21420;SDS011;10871;50.144;8.428;2024-01-10T03:24:04;16.55;;;7.85;;
21420;SDS011;10871;50.144;8.428;2024-01-10T03:26:31;17.13;;;7.50;;
21420;SDS011;10871;50.144;8.428;2024-01-10T03:28:57;16.88;;;7.18;;
21420;SDS011;10871;50.144;8.428;2024-01-10T03:31:24;16.90;;;6.97;;
21420;SDS011;10871;50.144;8.428;2024-01-10T03:33:51;18.95;;;7.88;;
21420;SDS011;10871;50.144;8.428;2024-01-10T03:36:18;17.20;;;7.70;;
21420;SDS011;10871;50.144;8.428;2024-01-10T03:38:44;17.73;;;7.30;;
21420;SDS011;10871;50.144;8.428;2024-01-10T03:41:15;16.60;;;7.80;;
21420;SDS011;10871;50.144;8.428;2024-01-10T03:43:41;14.68;;;7.43;;
21420;SDS011;10871;50.144;8.428;2024-01-10T03:46:09;17.13;;;7.28;;
21420;SDS011;10871;50.144;8.428;2024-01-10T03:48:35;15.18;;;7.10;;
21420;SDS011;10871;50.144;8.428;2024-01-10T03:51:03;15.35;;;7.15;;
21420;SDS011;10871;50.144;8.428;2024-01-10T03:53:30;14.63;;;7.18;;
21420;SDS011;10871;50.144;8.428;2024-01-10T03:55:57;19.33;;;7.80;;
21420;SDS011;10871;50.144;8.428;2024-01-10T03:58:24;14.85;;;6.82;;
21420;SDS011;10871;50.144;8.428;2024-01-10T04:00:51;13.80;;;6.78;;
21420;SDS011;10871;50.144;8.428;2024-01-10T04:03:18;18.30;;;7.35;;
21420;SDS011;10871;50.144;8.428;2024-01-10T04:05:45;16.17;;;7.35;;
21420;SDS011;10871;50.144;8.428;2024-01-10T04:08:12;15.40;;;7.47;;
21420;SDS011;10871;50.144;8.428;2024-01-10T04:10:41;20.15;;;7.82;;
21420;SDS011;10871;50.144;8.428;2024-01-10T04:13:08;16.88;;;8.38;;
21420;SDS011;10871;50.144;8.428;2024-01-10T04:15:34;16.17;;;7.80;;
21420;SDS011;10871;50.144;8.428;2024-01-10T04:18:01;17.35;;;7.70;;
21420;SDS011;10871;50.144;8.428;2024-01-10T04:20:27;17.88;;;7.90;;
21420;SDS011;10871;50.144;8.428;2024-01-10T04:22:54;19.90;;;7.65;;
21420;SDS011;10871;50.144;8.428;2024-01-10T04:25:21;17.33;;;7.72;;
21420;SDS011;10871;50.144;8.428;2024-01-10T04:27:47;16.55;;;7.60;;
21420;SDS011;10871;50.144;8.428;2024-01-10T04:30:16;15.88;;;7.75;;
21420;SDS011;10871;50.144;8.428;2024-01-10T04:32:43;17.77;;;7.43;;
21420;SDS011;10871;50.144;8.428;2024-01-10T04:35:11;15.98;;;7.72;;
21420;SDS011;10871;50.144;8.428;2024-01-10T04:37:38;20.80;;;9.02;;
21420;SDS011;10871;50.144;8.428;2024-01-10T04:40:06;18.38;;;8.00;;
21420;SDS011;10871;50.144;8.428;2024-01-10T04:42:34;16.27;;;7.63;;
21420;SDS011;10871;50.144;8.428;2024-01-10T04:45:01;17.15;;;7.47;;
21420;SDS011;10871;50.144;8.428;2024-01-10T04:47:28;16.83;;;7.47;;
21420;SDS011;10871;50.144;8.428;2024-01-10T04:49:54;18.83;;;7.95;;
21420;SDS011;10871;50.144;8.428;2024-01-10T04:52:21;19.80;;;8.52;;
21420;SDS011;10871;50.144;8.428;2024-01-10T04:54:47;18.92;;;8.40;;
21420;SDS011;10871;50.144;8.428;2024-01-10T04:57:14;17.70;;;8.23;;
21420;SDS011;10871;50.144;8.428;2024-01-10T04:59:41;15.70;;;7.70;;
21420;SDS011;10871;50.144;8.428;2024-01-10T05:02:07;19.13;;;7.80;;
21420;SDS011;10871;50.144;8.428;2024-01-10T05:04:34;17.58;;;7.28;;
21420;SDS011;10871;50.144;8.428;2024-01-10T05:07:00;14.15;;;7.07;;
21420;SDS011;10871;50.144;8.428;2024-01-10T05:09:27;17.67;;;7.05;;
21420;SDS011;10871;50.144;8.428;2024-01-10T05:11:54;17.42;;;7.80;;
21420;SDS011;10871;50.144;8.428;2024-01-10T05:14:21;15.65;;;6.70;;
21420;SDS011;10871;50.144;8.428;2024-01-10T05:16:48;13.98;;;7.03;;
21420;SDS011;10871;50.144;8.428;2024-01-10T05:19:15;16.85;;;7.38;;
21420;SDS011;10871;50.144;8.428;2024-01-10T05:21:41;15.52;;;7.78;;
21420;SDS011;10871;50.144;8.428;2024-01-10T05:24:08;20.83;;;7.32;;
21420;SDS011;10871;50.144;8.428;2024-01-10T05:26:34;16.13;;;7.15;;
21420;SDS011;10871;50.144;8.428;2024-01-10T05:29:01;13.18;;;6.97;;
21420;SDS011;10871;50.144;8.428;2024-01-10T05:31:28;17.23;;;7.22;;
21420;SDS011;10871;50.144;8.428;2024-01-10T05:33:54;16.33;;;7.07;;
21420;SDS011;10871;50.144;8.428;2024-01-10T05:36:21;15.07;;;7.63;;
21420;SDS011;10871;50.144;8.428;2024-01-10T05:38:49;15.65;;;7.70;;
21420;SDS011;10871;50.144;8.428;2024-01-10T05:41:16;15.02;;;6.82;;
21420;SDS011;10871;50.144;8.428;2024-01-10T05:43:42;13.98;;;6.95;;
21420;SDS011;10871;50.144;8.428;2024-01-10T05:46:10;13.15;;;6.57;;
21420;SDS011;10871;50.144;8.428;2024-01-10T05:48:37;16.98;;;7.53;;
21420;SDS011;10871;50.144;8.428;2024-01-10T05:51:03;16.83;;;7.28;;
21420;SDS011;10871;50.144;8.428;2024-01-10T05:53:30;17.85;;;7.68;;
21420;SDS011;10871;50.144;8.428;2024-01-10T05:55:57;15.73;;;7.43;;
21420;SDS011;10871;50.144;8.428;2024-01-10T05:58:25;15.40;;;7.20;;
21420;SDS011;10871;50.144;8.428;2024-01-10T06:00:51;17.40;;;7.65;;
21420;SDS011;10871;50.144;8.428;2024-01-10T06:03:18;13.00;;;6.30;;
21420;SDS011;10871;50.144;8.428;2024-01-10T06:05:45;17.65;;;8.02;;
21420;SDS011;10871;50.144;8.428;2024-01-10T06:08:12;18.08;;;7.70;;
21420;SDS011;10871;50.144;8.428;2024-01-10T06:10:40;15.23;;;7.22;;
21420;SDS011;10871;50.144;8.428;2024-01-10T06:13:08;18.15;;;7.82;;
21420;SDS011;10871;50.144;8.428;2024-01-10T06:15:36;17.63;;;8.07;;
21420;SDS011;10871;50.144;8.428;2024-01-10T06:18:04;16.48;;;8.13;;
21420;SDS011;10871;50.144;8.428;2024-01-10T06:20:31;14.75;;;7.25;;
21420;SDS011;10871;50.144;8.428;2024-01-10T06:22:59;18.15;;;7.40;;
21420;SDS011;10871;50.144;8.428;2024-01-10T06:25:26;15.73;;;7.78;;
21420;SDS011;10871;50.144;8.428;2024-01-10T06:27:54;20.80;;;7.50;;
21420;SDS011;10871;50.144;8.428;2024-01-10T06:30:20;15.55;;;7.45;;
21420;SDS011;10871;50.144;8.428;2024-01-10T06:32:47;14.18;;;6.90;;
21420;SDS011;10871;50.144;8.428;2024-01-10T06:35:14;16.42;;;7.45;;
21420;SDS011;10871;50.144;8.428;2024-01-10T06:37:41;19.38;;;8.10;;
21420;SDS011;10871;50.144;8.428;2024-01-10T06:40:10;19.17;;;8.95;;
21420;SDS011;10871;50.144;8.428;2024-01-10T06:42:38;16.20;;;8.18;;
21420;SDS011;10871;50.144;8.428;2024-01-10T06:45:06;17.55;;;8.02;;
21420;SDS011;10871;50.144;8.428;2024-01-10T06:47:34;17.95;;;8.18;;
21420;SDS011;10871;50.144;8.428;2024-01-10T06:50:01;16.88;;;7.72;;
21420;SDS011;10871;50.144;8.428;2024-01-10T06:52:27;18.48;;;7.53;;
21420;SDS011;10871;50.144;8.428;2024-01-10T06:54:54;18.05;;;8.30;;
21420;SDS011;10871;50.144;8.428;2024-01-10T06:57:20;16.92;;;8.38;;
21420;SDS011;10871;50.144;8.428;2024-01-10T06:59:48;19.88;;;7.85;;
21420;SDS011;10871;50.144;8.428;2024-01-10T07:02:15;17.83;;;7.80;;
21420;SDS011;10871;50.144;8.428;2024-01-10T07:04:41;20.83;;;8.55;;
21420;SDS011;10871;50.144;8.428;2024-01-10T07:07:08;18.45;;;8.07;;
21420;SDS011;10871;50.144;8.428;2024-01-10T07:09:35;17.45;;;8.32;;
21420;SDS011;10871;50.144;8.428;2024-01-10T07:12:01;17.08;;;8.57;;
21420;SDS011;10871;50.144;8.428;2024-01-10T07:14:30;19.35;;;8.40;;
21420;SDS011;10871;50.144;8.428;2024-01-10T07:16:57;19.25;;;8.15;;
21420;SDS011;10871;50.144;8.428;2024-01-10T07:19:24;16.35;;;7.75;;
21420;SDS011;10871;50.144;8.428;2024-01-10T07:21:52;16.30;;;7.93;;
21420;SDS011;10871;50.144;8.428;2024-01-10T07:24:20;17.73;;;8.20;;
21420;SDS011;10871;50.144;8.428;2024-01-10T07:26:47;22.15;;;8.93;;
21420;SDS011;10871;50.144;8.428;2024-01-10T07:29:14;16.75;;;7.60;;
21420;SDS011;10871;50.144;8.428;2024-01-10T07:31:41;21.65;;;8.73;;
21420;SDS011;10871;50.144;8.428;2024-01-10T07:34:08;18.80;;;8.40;;
21420;SDS011;10871;50.144;8.428;2024-01-10T07:36:40;18.35;;;8.55;;
21420;SDS011;10871;50.144;8.428;2024-01-10T07:39:07;12.65;;;6.78;;
21420;SDS011;10871;50.144;8.428;2024-01-10T07:41:34;19.98;;;9.13;;
21420;SDS011;10871;50.144;8.428;2024-01-10T07:44:01;17.63;;;8.82;;
21420;SDS011;10871;50.144;8.428;2024-01-10T07:46:27;18.95;;;8.10;;
21420;SDS011;10871;50.144;8.428;2024-01-10T07:48:54;20.88;;;8.95;;
21420;SDS011;10871;50.144;8.428;2024-01-10T07:51:21;22.98;;;8.85;;
21420;SDS011;10871;50.144;8.428;2024-01-10T07:53:48;17.50;;;8.13;;
21420;SDS011;10871;50.144;8.428;2024-01-10T07:56:15;23.50;;;9.20;;
21420;SDS011;10871;50.144;8.428;2024-01-10T07:58:42;20.80;;;9.07;;
21420;SDS011;10871;50.144;8.428;2024-01-10T08:01:11;20.27;;;9.13;;
21420;SDS011;10871;50.144;8.428;2024-01-10T08:03:38;22.40;;;9.10;;
21420;SDS011;10871;50.144;8.428;2024-01-10T08:06:06;20.98;;;9.48;;
21420;SDS011;10871;50.144;8.428;2024-01-10T08:08:45;20.90;;;9.00;;
21420;SDS011;10871;50.144;8.428;2024-01-10T08:11:12;23.25;;;9.68;;
21420;SDS011;10871;50.144;8.428;2024-01-10T08:13:39;20.27;;;8.93;;
21420;SDS011;10871;50.144;8.428;2024-01-10T08:16:06;21.23;;;8.57;;
21420;SDS011;10871;50.144;8.428;2024-01-10T08:18:35;19.13;;;8.77;;
21420;SDS011;10871;50.144;8.428;2024-01-10T08:21:03;20.90;;;8.43;;
21420;SDS011;10871;50.144;8.428;2024-01-10T08:23:30;17.20;;;8.27;;
21420;SDS011;10871;50.144;8.428;2024-01-10T08:25:57;20.90;;;8.70;;
21420;SDS011;10871;50.144;8.428;2024-01-10T08:28:24;28.30;;;9.65;;
21420;SDS011;10871;50.144;8.428;2024-01-10T08:30:52;20.50;;;8.63;;
21420;SDS011;10871;50.144;8.428;2024-01-10T08:33:25;18.05;;;9.13;;
21420;SDS011;10871;50.144;8.428;2024-01-10T08:35:51;20.35;;;9.70;;
21420;SDS011;10871;50.144;8.428;2024-01-10T08:38:18;19.98;;;9.07;;
21420;SDS011;10871;50.144;8.428;2024-01-10T08:40:45;23.58;;;9.93;;
21420;SDS011;10871;50.144;8.428;2024-01-10T08:43:14;25.70;;;10.68;;
21420;SDS011;10871;50.144;8.428;2024-01-10T08:45:40;23.08;;;10.35;;
21420;SDS011;10871;50.144;8.428;2024-01-10T08:48:07;20.52;;;9.25;;
21420;SDS011;10871;50.144;8.428;2024-01-10T08:50:36;25.23;;;9.63;;
21420;SDS011;10871;50.144;8.428;2024-01-10T08:53:03;23.73;;;9.73;;
21420;SDS011;10871;50.144;8.428;2024-01-10T08:55:31;21.17;;;8.82;;
21420;SDS011;10871;50.144;8.428;2024-01-10T08:57:58;20.40;;;8.55;;
21420;SDS011;10871;50.144;8.428;2024-01-10T09:00:25;23.42;;;10.05;;
21420;SDS011;10871;50.144;8.428;2024-01-10T09:02:52;18.35;;;8.70;;
21420;SDS011;10871;50.144;8.428;2024-01-10T09:05:21;19.83;;;8.55;;
21420;SDS011;10871;50.144;8.428;2024-01-10T09:07:49;19.67;;;9.30;;
21420;SDS011;10871;50.144;8.428;2024-01-10T09:10:15;21.85;;;9.20;;
21420;SDS011;10871;50.144;8.428;2024-01-10T09:12:42;18.02;;;9.27;;
21420;SDS011;10871;50.144;8.428;2024-01-10T09:15:12;19.65;;;9.77;;
21420;SDS011;10871;50.144;8.428;2024-01-10T09:17:41;18.33;;;8.68;;
21420;SDS011;10871;50.144;8.428;2024-01-10T09:20:08;20.17;;;9.13;;
21420;SDS011;10871;50.144;8.428;2024-01-10T09:22:35;19.70;;;9.15;;
21420;SDS011;10871;50.144;8.428;2024-01-10T09:25:02;20.25;;;9.10;;
21420;SDS011;10871;50.144;8.428;2024-01-10T09:27:34;19.17;;;8.98;;
21420;SDS011;10871;50.144;8.428;2024-01-10T09:30:02;19.23;;;8.75;;
21420;SDS011;10871;50.144;8.428;2024-01-10T09:32:28;20.65;;;9.10;;
21420;SDS011;10871;50.144;8.428;2024-01-10T09:34:56;21.52;;;9.68;;
21420;SDS011;10871;50.144;8.428;2024-01-10T09:37:23;18.38;;;9.15;;
21420;SDS011;10871;50.144;8.428;2024-01-10T09:39:49;20.45;;;9.27;;
21420;SDS011;10871;50.144;8.428;2024-01-10T09:42:16;20.00;;;9.75;;
21420;SDS011;10871;50.144;8.428;2024-01-10T09:44:43;18.63;;;8.77;;
21420;SDS011;10871;50.144;8.428;2024-01-10T09:47:09;19.55;;;9.57;;
21420;SDS011;10871;50.144;8.428;2024-01-10T09:49:36;17.60;;;8.73;;
21420;SDS011;10871;50.144;8.428;2024-01-10T09:52:03;21.23;;;9.60;;
21420;SDS011;10871;50.144;8.428;2024-01-10T09:54:31;20.13;;;8.57;;
21420;SDS011;10871;50.144;8.428;2024-01-10T09:56:57;19.33;;;9.50;;
21420;SDS011;10871;50.144;8.428;2024-01-10T09:59:24;21.00;;;9.98;;
21420;SDS011;10871;50.144;8.428;2024-01-10T10:01:51;21.52;;;10.85;;
21420;SDS011;10871;50.144;8.428;2024-01-10T10:04:18;20.63;;;10.20;;
21420;SDS011;10871;50.144;8.428;2024-01-10T10:06:46;19.92;;;9.15;;
21420;SDS011;10871;50.144;8.428;2024-01-10T10:09:13;19.90;;;9.00;;
21420;SDS011;10871;50.144;8.428;2024-01-10T10:11:40;22.15;;;9.52;;
21420;SDS011;10871;50.144;8.428;2024-01-10T10:14:18;20.58;;;9.75;;
21420;SDS011;10871;50.144;8.428;2024-01-10T10:16:45;19.38;;;9.43;;
21420;SDS011;10871;50.144;8.428;2024-01-10T10:19:14;21.02;;;9.23;;
21420;SDS011;10871;50.144;8.428;2024-01-10T10:22:07;18.58;;;8.98;;
21420;SDS011;10871;50.144;8.428;2024-01-10T10:24:35;19.45;;;8.82;;
21420;SDS011;10871;50.144;8.428;2024-01-10T10:27:07;20.05;;;8.82;;
21420;SDS011;10871;50.144;8.428;2024-01-10T10:29:35;19.23;;;9.35;;
21420;SDS011;10871;50.144;8.428;2024-01-10T10:32:02;16.95;;;8.80;;
21420;SDS011;10871;50.144;8.428;2024-01-10T10:34:32;23.50;;;9.75;;
21420;SDS011;10871;50.144;8.428;2024-01-10T10:37:00;22.35;;;9.70;;
21420;SDS011;10871;50.144;8.428;2024-01-10T10:39:27;23.90;;;9.05;;
21420;SDS011;10871;50.144;8.428;2024-01-10T10:41:53;21.17;;;9.75;;
21420;SDS011;10871;50.144;8.428;2024-01-10T10:44:23;20.02;;;9.43;;
21420;SDS011;10871;50.144;8.428;2024-01-10T10:46:52;22.35;;;8.88;;
21420;SDS011;10871;50.144;8.428;2024-01-10T10:49:37;22.52;;;10.15;;
21420;SDS011;10871;50.144;8.428;2024-01-10T10:52:07;25.92;;;9.20;;
21420;SDS011;10871;50.144;8.428;2024-01-10T10:54:34;21.67;;;9.90;;
21420;SDS011;10871;50.144;8.428;2024-01-10T10:57:01;23.08;;;9.57;;
21420;SDS011;10871;50.144;8.428;2024-01-10T10:59:28;22.85;;;10.55;;
21420;SDS011;10871;50.144;8.428;2024-01-10T11:01:55;22.75;;;10.35;;
21420;SDS011;10871;50.144;8.428;2024-01-10T11:04:22;22.85;;;9.95;;
21420;SDS011;10871;50.144;8.428;2024-01-10T11:06:50;22.98;;;10.00;;
21420;SDS011;10871;50.144;8.428;2024-01-10T11:09:17;21.85;;;9.77;;
21420;SDS011;10871;50.144;8.428;2024-01-10T11:14:18;21.00;;;9.50;;
21420;SDS011;10871;50.144;8.428;2024-01-10T11:24:54;21.50;;;10.18;;
21420;SDS011;10871;50.144;8.428;2024-01-10T11:27:24;26.92;;;10.48;;
21420;SDS011;10871;50.144;8.428;2024-01-10T11:29:52;18.77;;;9.30;;
21420;SDS011;10871;50.144;8.428;2024-01-10T11:32:22;20.77;;;9.98;;
21420;SDS011;10871;50.144;8.428;2024-01-10T11:37:37;22.23;;;10.15;;
21420;SDS011;10871;50.144;8.428;2024-01-10T11:40:07;20.60;;;9.40;;
21420;SDS011;10871;50.144;8.428;2024-01-10T11:42:44;23.95;;;10.88;;
21420;SDS011;10871;50.144;8.428;2024-01-10T11:45:59;23.77;;;10.63;;
21420;SDS011;10871;50.144;8.428;2024-01-10T11:48:00;20.52;;;10.05;;
21420;SDS011;10871;50.144;8.428;2024-01-10T11:50:27;19.95;;;9.45;;
21420;SDS011;10871;50.144;8.428;2024-01-10T11:52:55;17.70;;;9.02;;
21420;SDS011;10871;50.144;8.428;2024-01-10T11:58:08;19.50;;;10.00;;
21420;SDS011;10871;50.144;8.428;2024-01-10T12:00:35;18.52;;;8.98;;
21420;SDS011;10871;50.144;8.428;2024-01-10T12:03:02;17.27;;;8.45;;
21420;SDS011;10871;50.144;8.428;2024-01-10T12:05:29;19.48;;;9.32;;
21420;SDS011;10871;50.144;8.428;2024-01-10T12:07:56;16.92;;;10.00;;
21420;SDS011;10871;50.144;8.428;2024-01-10T12:10:26;21.67;;;9.77;;
21420;SDS011;10871;50.144;8.428;2024-01-10T12:12:53;18.98;;;9.27;;
21420;SDS011;10871;50.144;8.428;2024-01-10T12:15:24;18.02;;;9.85;;
21420;SDS011;10871;50.144;8.428;2024-01-10T12:17:52;21.35;;;10.15;;
21420;SDS011;10871;50.144;8.428;2024-01-10T12:20:18;20.48;;;9.55;;
21420;SDS011;10871;50.144;8.428;2024-01-10T12:22:45;20.25;;;9.27;;
21420;SDS011;10871;50.144;8.428;2024-01-10T12:25:12;18.92;;;9.43;;
21420;SDS011;10871;50.144;8.428;2024-01-10T12:27:39;18.98;;;9.43;;
21420;SDS011;10871;50.144;8.428;2024-01-10T12:30:06;19.95;;;9.00;;
21420;SDS011;10871;50.144;8.428;2024-01-10T12:32:33;17.55;;;8.85;;
21420;SDS011;10871;50.144;8.428;2024-01-10T12:42:20;19.92;;;9.73;;
21420;SDS011;10871;50.144;8.428;2024-01-10T12:44:47;16.70;;;9.60;;
21420;SDS011;10871;50.144;8.428;2024-01-10T12:47:24;17.15;;;8.80;;
21420;SDS011;10871;50.144;8.428;2024-01-10T12:49:51;20.33;;;9.88;;
21420;SDS011;10871;50.144;8.428;2024-01-10T12:52:17;21.60;;;10.55;;
21420;SDS011;10871;50.144;8.428;2024-01-10T12:54:48;23.63;;;10.00;;
21420;SDS011;10871;50.144;8.428;2024-01-10T12:57:15;17.67;;;10.07;;
21420;SDS011;10871;50.144;8.428;2024-01-10T12:59:41;25.30;;;10.60;;
21420;SDS011;10871;50.144;8.428;2024-01-10T13:02:08;22.50;;;10.43;;
21420;SDS011;10871;50.144;8.428;2024-01-10T13:04:35;19.27;;;10.52;;
21420;SDS011;10871;50.144;8.428;2024-01-10T13:07:02;21.75;;;11.38;;
21420;SDS011;10871;50.144;8.428;2024-01-10T13:09:29;20.25;;;11.05;;
21420;SDS011;10871;50.144;8.428;2024-01-10T13:11:55;21.10;;;10.95;;
21420;SDS011;10871;50.144;8.428;2024-01-10T13:14:22;20.50;;;11.18;;
21420;SDS011;10871;50.144;8.428;2024-01-10T13:16:50;21.20;;;10.75;;
21420;SDS011;10871;50.144;8.428;2024-01-10T13:19:25;20.55;;;10.68;;
21420;SDS011;10871;50.144;8.428;2024-01-10T13:21:53;20.08;;;10.95;;
21420;SDS011;10871;50.144;8.428;2024-01-10T13:24:20;18.55;;;10.68;;
21420;SDS011;10871;50.144;8.428;2024-01-10T13:26:47;22.00;;;12.00;;
21420;SDS011;10871;50.144;8.428;2024-01-10T13:29:15;20.40;;;11.52;;
21420;SDS011;10871;50.144;8.428;2024-01-10T13:31:42;19.65;;;11.55;;
21420;SDS011;10871;50.144;8.428;2024-01-10T13:34:12;22.45;;;11.60;;
21420;SDS011;10871;50.144;8.428;2024-01-10T13:36:39;22.48;;;12.20;;
21420;SDS011;10871;50.144;8.428;2024-01-10T13:39:06;22.55;;;11.82;;
21420;SDS011;10871;50.144;8.428;2024-01-10T13:41:33;20.20;;;11.25;;
21420;SDS011;10871;50.144;8.428;2024-01-10T13:44:00;19.10;;;10.25;;
21420;SDS011;10871;50.144;8.428;2024-01-10T13:46:26;19.40;;;10.63;;
21420;SDS011;10871;50.144;8.428;2024-01-10T13:48:53;23.17;;;11.32;;
21420;SDS011;10871;50.144;8.428;2024-01-10T13:51:19;21.35;;;11.70;;
21420;SDS011;10871;50.144;8.428;2024-01-10T13:53:46;19.38;;;10.60;;
21420;SDS011;10871;50.144;8.428;2024-01-10T13:56:12;22.17;;;10.35;;
21420;SDS011;10871;50.144;8.428;2024-01-10T13:58:39;21.23;;;10.60;;
21420;SDS011;10871;50.144;8.428;2024-01-10T14:01:06;20.15;;;10.00;;
21420;SDS011;10871;50.144;8.428;2024-01-10T14:03:32;19.13;;;9.80;;
21420;SDS011;10871;50.144;8.428;2024-01-10T14:05:59;22.52;;;10.88;;
21420;SDS011;10871;50.144;8.428;2024-01-10T14:08:27;26.70;;;11.40;;
21420;SDS011;10871;50.144;8.428;2024-01-10T14:10:53;20.23;;;10.73;;
21420;SDS011;10871;50.144;8.428;2024-01-10T14:13:20;22.42;;;12.02;;
21420;SDS011;10871;50.144;8.428;2024-01-10T14:15:47;18.08;;;9.80;;
21420;SDS011;10871;50.144;8.428;2024-01-10T14:18:14;21.45;;;10.82;;
21420;SDS011;10871;50.144;8.428;2024-01-10T14:20:40;20.63;;;10.32;;
21420;SDS011;10871;50.144;8.428;2024-01-10T14:23:09;21.08;;;10.00;;
21420;SDS011;10871;50.144;8.428;2024-01-10T14:25:36;23.75;;;10.27;;
21420;SDS011;10871;50.144;8.428;2024-01-10T14:28:03;20.17;;;10.63;;
21420;SDS011;10871;50.144;8.428;2024-01-10T14:30:29;22.13;;;10.25;;
21420;SDS011;10871;50.144;8.428;2024-01-10T14:32:56;17.38;;;9.45;;
21420;SDS011;10871;50.144;8.428;2024-01-10T14:35:23;19.75;;;9.90;;
21420;SDS011;10871;50.144;8.428;2024-01-10T14:37:50;20.10;;;9.52;;
21420;SDS011;10871;50.144;8.428;2024-01-10T14:40:17;20.45;;;10.32;;
21420;SDS011;10871;50.144;8.428;2024-01-10T14:42:43;20.80;;;9.60;;
21420;SDS011;10871;50.144;8.428;2024-01-10T14:45:12;22.25;;;9.82;;
21420;SDS011;10871;50.144;8.428;2024-01-10T14:47:40;20.08;;;9.68;;
21420;SDS011;10871;50.144;8.428;2024-01-10T14:50:06;18.95;;;9.35;;
21420;SDS011;10871;50.144;8.428;2024-01-10T14:52:33;19.85;;;9.98;;
21420;SDS011;10871;50.144;8.428;2024-01-10T14:55:00;19.10;;;10.15;;
21420;SDS011;10871;50.144;8.428;2024-01-10T14:57:30;20.10;;;9.55;;